createdAt,value
2016-12-27T00:00:35.801Z,1027.19
2016-12-27T00:01:46.786Z,1027.11
2016-12-27T00:02:58.166Z,1027.14
2016-12-27T00:04:09.141Z,1027
2016-12-27T00:05:20.117Z,1027.09
2016-12-27T00:06:31.245Z,1027.14
2016-12-27T00:07:42.418Z,1027.14
2016-12-27T00:08:53.408Z,1027.2
2016-12-27T00:10:04.392Z,1027.22
2016-12-27T00:11:15.376Z,1027.23
2016-12-27T00:12:26.408Z,1027.19
2016-12-27T00:13:37.392Z,1027.26
2016-12-27T00:14:48.381Z,1027.17
2016-12-27T00:15:59.364Z,1027.26
2016-12-27T00:17:10.547Z,1027.29
2016-12-27T00:18:21.681Z,1027.28
2016-12-27T00:19:32.663Z,1027.18
2016-12-27T00:20:43.645Z,1027.2
2016-12-27T00:21:54.623Z,1027.2
2016-12-27T00:23:05.607Z,1027.22
2016-12-27T00:24:16.846Z,1027.28
2016-12-27T00:25:27.828Z,1027.28
2016-12-27T00:26:38.811Z,1027.24
2016-12-27T00:27:49.802Z,1027.28
2016-12-27T00:29:00.790Z,1027.27
2016-12-27T00:30:11.971Z,1027.34
2016-12-27T00:31:22.954Z,1027.36
2016-12-27T00:32:33.933Z,1027.41
2016-12-27T00:33:44.921Z,1027.42
2016-12-27T00:34:56.107Z,1027.38
2016-12-27T00:36:07.298Z,1027.43
2016-12-27T00:37:18.281Z,1027.39
2016-12-27T00:38:29.257Z,1027.44
2016-12-27T00:39:40.444Z,1027.48
2016-12-27T00:40:51.622Z,1027.47
2016-12-27T00:42:02.602Z,1027.54
2016-12-27T00:43:13.585Z,1027.69
2016-12-27T00:44:24.572Z,1027.59
2016-12-27T00:45:35.555Z,1027.54
2016-12-27T00:46:46.551Z,1027.48
2016-12-27T00:47:57.564Z,1027.47
2016-12-27T00:49:08.547Z,1027.48
2016-12-27T00:50:19.527Z,1027.56
2016-12-27T00:51:30.505Z,1027.62
2016-12-27T00:52:41.690Z,1027.74
2016-12-27T00:53:52.669Z,1027.72
2016-12-27T00:55:03.678Z,1027.72
2016-12-27T00:56:14.662Z,1027.77
2016-12-27T00:57:25.642Z,1027.79
2016-12-27T00:58:36.616Z,1027.85
2016-12-27T00:59:47.599Z,1027.74
2016-12-27T01:00:58.594Z,1027.76
2016-12-27T01:02:09.571Z,1027.76
2016-12-27T01:03:20.551Z,1027.78
2016-12-27T01:04:31.539Z,1027.76
2016-12-27T01:05:42.567Z,1027.75
2016-12-27T01:06:53.556Z,1027.76
2016-12-27T01:08:04.562Z,1027.79
2016-12-27T01:09:15.549Z,1027.88
2016-12-27T01:10:26.522Z,1027.85
2016-12-27T01:11:37.709Z,1027.79
2016-12-27T01:12:48.701Z,1027.8
2016-12-27T01:13:59.682Z,1027.77
2016-12-27T01:15:10.713Z,1027.85
2016-12-27T01:16:21.692Z,1027.81
2016-12-27T01:17:32.676Z,1027.89
2016-12-27T01:18:43.663Z,1027.88
2016-12-27T01:19:54.639Z,1027.95
2016-12-27T01:21:05.676Z,1027.99
2016-12-27T01:22:16.857Z,1027.94
2016-12-27T01:23:27.857Z,1027.99
2016-12-27T01:24:38.847Z,1027.99
2016-12-27T01:25:50.232Z,1028.04
2016-12-27T01:27:01.207Z,1028.03
2016-12-27T01:28:12.192Z,1028.06
2016-12-27T01:29:23.179Z,1028.15
2016-12-27T01:30:34.166Z,1028.11
2016-12-27T01:31:45.145Z,1028.26
2016-12-27T01:32:56.130Z,1028.28
2016-12-27T01:34:07.108Z,1028.33
2016-12-27T01:35:18.085Z,1028.36
2016-12-27T01:36:29.265Z,1028.36
2016-12-27T01:37:40.449Z,1028.3
2016-12-27T01:38:51.637Z,1028.34
2016-12-27T01:40:02.871Z,1028.34
2016-12-27T01:41:13.864Z,1028.43
2016-12-27T01:42:24.848Z,1028.39
2016-12-27T01:43:35.835Z,1028.44
2016-12-27T01:44:46.811Z,1028.5
2016-12-27T01:45:57.995Z,1028.49
2016-12-27T01:47:08.977Z,1028.49
2016-12-27T01:48:19.970Z,1028.4
2016-12-27T01:49:30.948Z,1028.29
2016-12-27T01:50:41.929Z,1028.41
2016-12-27T01:51:52.919Z,1028.49
2016-12-27T01:53:04.104Z,1028.53
2016-12-27T01:54:15.096Z,1028.51
2016-12-27T01:55:26.072Z,1028.5
2016-12-27T01:56:37.057Z,1028.46
2016-12-27T01:57:48.463Z,1028.52
2016-12-27T01:58:59.448Z,1028.57
2016-12-27T02:00:10.433Z,1028.55
2016-12-27T02:01:21.412Z,1028.56
2016-12-27T02:02:32.398Z,1028.6
2016-12-27T02:03:43.376Z,1028.57
2016-12-27T02:04:54.359Z,1028.55
2016-12-27T02:06:05.337Z,1028.57
2016-12-27T02:07:16.323Z,1028.48
2016-12-27T02:08:27.327Z,1028.46
2016-12-27T02:09:38.315Z,1028.4
2016-12-27T02:10:49.295Z,1028.38
2016-12-27T02:12:00.484Z,1028.31
2016-12-27T02:13:11.461Z,1028.4
2016-12-27T02:14:22.655Z,1028.36
2016-12-27T02:15:33.842Z,1028.41
2016-12-27T02:16:44.829Z,1028.39
2016-12-27T02:17:55.809Z,1028.43
2016-12-27T02:19:06.830Z,1028.48
2016-12-27T02:20:17.815Z,1028.51
2016-12-27T02:21:28.797Z,1028.51
2016-12-27T02:22:39.986Z,1028.56
2016-12-27T02:23:51.165Z,1028.61
2016-12-27T02:25:02.153Z,1028.57
2016-12-27T02:26:13.146Z,1028.58
2016-12-27T02:27:24.134Z,1028.65
2016-12-27T02:28:35.120Z,1028.6
2016-12-27T02:29:46.107Z,1028.64
2016-12-27T02:30:57.093Z,1028.67
2016-12-27T02:32:08.480Z,1028.62
2016-12-27T02:33:19.466Z,1028.62
2016-12-27T02:34:30.443Z,1028.7
2016-12-27T02:35:41.629Z,1028.7
2016-12-27T02:36:52.619Z,1028.75
2016-12-27T02:38:03.809Z,1028.73
2016-12-27T02:39:15.019Z,1028.78
2016-12-27T02:40:26.003Z,1028.76
2016-12-27T02:41:36.983Z,1028.75
2016-12-27T02:42:47.966Z,1028.74
2016-12-27T02:43:58.955Z,1028.72
2016-12-27T02:45:09.937Z,1028.64
2016-12-27T02:46:20.922Z,1028.67
2016-12-27T02:47:31.912Z,1028.68
2016-12-27T02:48:43.099Z,1028.63
2016-12-27T02:49:54.082Z,1028.69
2016-12-27T02:51:05.071Z,1028.68
2016-12-27T02:52:16.057Z,1028.65
2016-12-27T02:53:27.045Z,1028.7
2016-12-27T02:54:38.028Z,1028.67
2016-12-27T02:55:49.217Z,1028.67
2016-12-27T02:57:00.201Z,1028.61
2016-12-27T02:58:11.211Z,1028.62
2016-12-27T02:59:22.194Z,1028.6
2016-12-27T03:00:33.172Z,1028.63
2016-12-27T03:01:44.156Z,1028.58
2016-12-27T03:02:55.143Z,1028.7
2016-12-27T03:04:06.157Z,1028.64
2016-12-27T03:05:17.337Z,1028.75
2016-12-27T03:06:28.323Z,1028.74
2016-12-27T03:07:39.345Z,1028.8
2016-12-27T03:08:50.329Z,1028.85
2016-12-27T03:10:01.342Z,1028.86
2016-12-27T03:11:12.328Z,1028.87
2016-12-27T03:12:23.511Z,1028.89
2016-12-27T03:13:34.497Z,1028.93
2016-12-27T03:14:45.476Z,1028.9
2016-12-27T03:15:56.461Z,1029.01
2016-12-27T03:17:07.446Z,1029.07
2016-12-27T03:18:18.437Z,1029.1
2016-12-27T03:19:29.418Z,1029.04
2016-12-27T03:20:40.406Z,1029.07
2016-12-27T03:21:51.397Z,1029.05
2016-12-27T03:23:02.378Z,1029.03
2016-12-27T03:24:13.364Z,1029.08
2016-12-27T03:25:24.356Z,1029.06
2016-12-27T03:26:35.371Z,1029.01
2016-12-27T03:27:46.363Z,1029.08
2016-12-27T03:28:57.346Z,1029.04
2016-12-27T03:30:08.329Z,1029.04
2016-12-27T03:31:19.525Z,1029.11
2016-12-27T03:32:30.704Z,1029.17
2016-12-27T03:33:41.683Z,1029.21
2016-12-27T03:34:52.666Z,1029.24
2016-12-27T03:36:03.654Z,1029.27
2016-12-27T03:37:14.637Z,1029.26
2016-12-27T03:38:25.622Z,1029.31
2016-12-27T03:39:36.605Z,1029.34
2016-12-27T03:40:47.592Z,1029.4
2016-12-27T03:41:58.573Z,1029.42
2016-12-27T03:43:09.558Z,1029.53
2016-12-27T03:44:20.546Z,1029.54
2016-12-27T03:45:31.534Z,1029.54
2016-12-27T03:46:42.522Z,1029.52
2016-12-27T03:47:53.504Z,1029.55
2016-12-27T03:49:04.489Z,1029.49
2016-12-27T03:50:15.491Z,1029.49
2016-12-27T03:51:26.472Z,1029.46
2016-12-27T03:52:37.485Z,1029.44
2016-12-27T03:53:48.670Z,1029.46
2016-12-27T03:54:59.647Z,1029.49
2016-12-27T03:56:10.683Z,1029.48
2016-12-27T03:57:21.664Z,1029.55
2016-12-27T03:58:32.655Z,1029.56
2016-12-27T03:59:43.839Z,1029.52
2016-12-27T04:00:54.824Z,1029.48
2016-12-27T04:02:05.832Z,1029.51
2016-12-27T04:03:16.811Z,1029.5
2016-12-27T04:04:27.792Z,1029.65
2016-12-27T04:05:38.776Z,1029.69
2016-12-27T04:06:49.758Z,1029.62
2016-12-27T04:08:00.746Z,1029.72
2016-12-27T04:09:11.731Z,1029.67
2016-12-27T04:10:22.712Z,1029.64
2016-12-27T04:11:33.901Z,1029.69
2016-12-27T04:12:45.088Z,1029.63
2016-12-27T04:13:56.085Z,1029.64
2016-12-27T04:15:07.068Z,1029.62
2016-12-27T04:16:18.059Z,1029.69
2016-12-27T04:17:29.039Z,1029.65
2016-12-27T04:18:40.031Z,1029.66
2016-12-27T04:19:51.011Z,1029.7
2016-12-27T04:21:02.003Z,1029.71
2016-12-27T04:22:12.992Z,1029.72
2016-12-27T04:23:24.173Z,1029.71
2016-12-27T04:24:35.183Z,1029.73
2016-12-27T04:25:46.367Z,1029.75
2016-12-27T04:26:57.350Z,1029.74
2016-12-27T04:28:08.338Z,1029.79
2016-12-27T04:29:19.325Z,1029.78
2016-12-27T04:30:30.357Z,1029.85
2016-12-27T04:31:41.341Z,1029.89
2016-12-27T04:32:52.522Z,1029.92
2016-12-27T04:34:03.513Z,1029.92
2016-12-27T04:35:14.703Z,1029.9
2016-12-27T04:36:25.696Z,1029.96
2016-12-27T04:37:36.679Z,1029.97
2016-12-27T04:38:47.659Z,1029.96
2016-12-27T04:39:58.649Z,1030.01
2016-12-27T04:41:09.638Z,1030.04
2016-12-27T04:42:20.625Z,1030.07
2016-12-27T04:43:31.817Z,1030.12
2016-12-27T04:44:42.805Z,1030.09
2016-12-27T04:45:53.780Z,1030.12
2016-12-27T04:47:04.759Z,1030.1
2016-12-27T04:48:15.952Z,1030.12
2016-12-27T04:49:26.944Z,1030.14
2016-12-27T04:50:37.924Z,1030.17
2016-12-27T04:51:48.906Z,1030.19
2016-12-27T04:52:59.894Z,1030.18
2016-12-27T04:54:10.884Z,1030.19
2016-12-27T04:55:21.913Z,1030.19
2016-12-27T04:56:32.898Z,1030.15
2016-12-27T04:57:44.113Z,1030.17
2016-12-27T04:58:55.101Z,1030.18
2016-12-27T05:00:06.086Z,1030.2
2016-12-27T05:01:17.070Z,1030.21
2016-12-27T05:02:28.047Z,1030.23
2016-12-27T05:03:39.026Z,1030.14
2016-12-27T05:04:50.017Z,1030.23
2016-12-27T05:06:00.993Z,1030.21
2016-12-27T05:07:11.979Z,1030.18
2016-12-27T05:08:22.984Z,1030.15
2016-12-27T05:09:33.966Z,1030.24
2016-12-27T05:10:44.952Z,1030.22
2016-12-27T05:11:55.938Z,1030.19
2016-12-27T05:13:07.116Z,1030.19
2016-12-27T05:14:18.097Z,1030.18
2016-12-27T05:15:29.074Z,1030.22
2016-12-27T05:16:40.057Z,1030.25
2016-12-27T05:17:51.035Z,1030.23
2016-12-27T05:19:02.043Z,1030.28
2016-12-27T05:20:13.022Z,1030.28
2016-12-27T05:21:23.998Z,1030.3
2016-12-27T05:22:34.982Z,1030.29
2016-12-27T05:23:45.966Z,1030.34
2016-12-27T05:24:56.950Z,1030.39
2016-12-27T05:26:08.135Z,1030.37
2016-12-27T05:27:19.117Z,1030.46
2016-12-27T05:28:30.104Z,1030.43
2016-12-27T05:29:41.289Z,1030.45
2016-12-27T05:30:52.276Z,1030.49
2016-12-27T05:32:03.270Z,1030.52
2016-12-27T05:33:14.251Z,1030.53
2016-12-27T05:34:25.248Z,1030.51
2016-12-27T05:35:36.231Z,1030.55
2016-12-27T05:36:47.212Z,1030.54
2016-12-27T05:37:58.189Z,1030.56
2016-12-27T05:39:09.175Z,1030.55
2016-12-27T05:40:20.161Z,1030.57
2016-12-27T05:41:31.145Z,1030.59
2016-12-27T05:42:42.135Z,1030.64
2016-12-27T05:43:53.523Z,1030.62
2016-12-27T05:45:04.511Z,1030.59
2016-12-27T05:46:15.495Z,1030.57
2016-12-27T05:47:26.501Z,1030.56
2016-12-27T05:48:37.483Z,1030.62
2016-12-27T05:49:48.671Z,1030.62
2016-12-27T05:50:59.713Z,1030.61
2016-12-27T05:52:10.704Z,1030.67
2016-12-27T05:53:21.697Z,1030.76
2016-12-27T05:54:32.679Z,1030.7
2016-12-27T05:55:43.661Z,1030.71
2016-12-27T05:56:54.640Z,1030.73
2016-12-27T05:58:05.628Z,1030.74
2016-12-27T05:59:16.618Z,1030.77
2016-12-27T06:00:27.600Z,1030.87
2016-12-27T06:01:38.582Z,1030.82
2016-12-27T06:02:49.569Z,1030.88
2016-12-27T06:04:00.548Z,1030.93
2016-12-27T06:05:11.537Z,1030.98
2016-12-27T06:06:22.528Z,1031.02
2016-12-27T06:07:33.509Z,1031.02
2016-12-27T06:08:44.504Z,1031.02
2016-12-27T06:09:55.487Z,1031.11
2016-12-27T06:11:06.471Z,1031.13
2016-12-27T06:12:17.456Z,1031.1
2016-12-27T06:13:28.445Z,1031.14
2016-12-27T06:14:39.425Z,1031.12
2016-12-27T06:15:50.456Z,1031.12
2016-12-27T06:17:01.636Z,1031.09
2016-12-27T06:18:12.620Z,1031.18
2016-12-27T06:19:23.611Z,1031.19
2016-12-27T06:20:34.803Z,1031.25
2016-12-27T06:21:45.787Z,1031.23
2016-12-27T06:22:56.775Z,1031.29
2016-12-27T06:24:07.757Z,1031.35
2016-12-27T06:25:19.145Z,1031.34
2016-12-27T06:26:30.124Z,1031.37
2016-12-27T06:27:41.309Z,1031.47
2016-12-27T06:28:52.502Z,1031.44
2016-12-27T06:30:03.696Z,1031.45
2016-12-27T06:31:14.709Z,1031.43
2016-12-27T06:32:25.691Z,1031.44
2016-12-27T06:33:36.878Z,1031.44
2016-12-27T06:34:47.867Z,1031.49
2016-12-27T06:35:58.841Z,1031.51
2016-12-27T06:37:09.823Z,1031.59
2016-12-27T06:38:20.805Z,1031.6
2016-12-27T06:39:31.792Z,1031.61
2016-12-27T06:40:42.776Z,1031.63
2016-12-27T06:41:53.758Z,1031.6
2016-12-27T06:43:04.958Z,1031.57
2016-12-27T06:44:15.947Z,1031.59
2016-12-27T06:45:27.133Z,1031.56
2016-12-27T06:46:38.320Z,1031.5
2016-12-27T06:47:49.315Z,1031.54
2016-12-27T06:49:00.295Z,1031.59
2016-12-27T06:50:11.480Z,1031.59
2016-12-27T06:51:22.670Z,1031.54
2016-12-27T06:52:33.665Z,1031.5
2016-12-27T06:53:44.643Z,1031.53
2016-12-27T06:54:55.627Z,1031.58
2016-12-27T06:56:06.658Z,1031.57
2016-12-27T06:57:17.638Z,1031.6
2016-12-27T06:58:28.628Z,1031.6
2016-12-27T06:59:39.611Z,1031.58
2016-12-27T07:00:50.649Z,1031.6
2016-12-27T07:02:01.641Z,1031.61
2016-12-27T07:03:12.618Z,1031.62
2016-12-27T07:04:23.607Z,1031.68
2016-12-27T07:05:34.619Z,1031.6
2016-12-27T07:06:45.599Z,1031.61
2016-12-27T07:07:56.776Z,1031.6
2016-12-27T07:09:07.761Z,1031.65
2016-12-27T07:10:18.775Z,1031.66
2016-12-27T07:11:29.769Z,1031.66
2016-12-27T07:12:40.951Z,1031.71
2016-12-27T07:13:51.929Z,1031.72
2016-12-27T07:15:02.960Z,1031.69
2016-12-27T07:16:13.936Z,1031.69
2016-12-27T07:17:24.953Z,1031.72
2016-12-27T07:18:35.939Z,1031.67
2016-12-27T07:19:47.123Z,1031.69
2016-12-27T07:20:58.106Z,1031.67
2016-12-27T07:22:09.095Z,1031.66
2016-12-27T07:23:20.077Z,1031.7
2016-12-27T07:24:31.272Z,1031.83
2016-12-27T07:25:42.254Z,1031.83
2016-12-27T07:26:53.234Z,1031.82
2016-12-27T07:28:04.220Z,1031.89
2016-12-27T07:29:15.409Z,1031.9
2016-12-27T07:30:26.403Z,1031.89
2016-12-27T07:31:37.390Z,1031.88
2016-12-27T07:32:48.373Z,1031.81
2016-12-27T07:33:59.351Z,1031.84
2016-12-27T07:35:10.330Z,1031.88
2016-12-27T07:36:21.321Z,1031.87
2016-12-27T07:37:32.301Z,1031.87
2016-12-27T07:38:43.287Z,1031.9
2016-12-27T07:39:54.469Z,1032.01
2016-12-27T07:41:05.505Z,1032.05
2016-12-27T07:42:16.489Z,1032.01
2016-12-27T07:43:27.495Z,1032.08
2016-12-27T07:44:38.476Z,1032.08
2016-12-27T07:45:49.652Z,1032.08
2016-12-27T07:47:00.639Z,1032.14
2016-12-27T07:48:11.823Z,1032.16
2016-12-27T07:49:23.005Z,1032.19
2016-12-27T07:50:33.988Z,1032.22
2016-12-27T07:51:44.967Z,1032.26
2016-12-27T07:52:55.961Z,1032.34
2016-12-27T07:54:07.001Z,1032.35
2016-12-27T07:55:18.184Z,1032.37
2016-12-27T07:56:29.168Z,1032.47
2016-12-27T07:57:40.148Z,1032.48
2016-12-27T07:58:51.127Z,1032.53
2016-12-27T08:00:02.108Z,1032.56
2016-12-27T08:01:13.090Z,1032.56
2016-12-27T08:02:24.068Z,1032.59
2016-12-27T08:03:35.076Z,1032.58
2016-12-27T08:04:46.254Z,1032.69
2016-12-27T08:05:57.237Z,1032.67
2016-12-27T08:07:08.418Z,1032.67
2016-12-27T08:08:19.403Z,1032.69
2016-12-27T08:09:30.587Z,1032.71
2016-12-27T08:10:41.569Z,1032.75
2016-12-27T08:11:52.548Z,1032.73
2016-12-27T08:13:03.535Z,1032.76
2016-12-27T08:14:14.523Z,1032.75
2016-12-27T08:15:25.513Z,1032.8
2016-12-27T08:16:36.489Z,1032.83
2016-12-27T08:17:47.471Z,1032.83
2016-12-27T08:18:58.658Z,1032.87
2016-12-27T08:20:09.648Z,1032.88
2016-12-27T08:21:20.631Z,1032.88
2016-12-27T08:22:31.621Z,1032.89
2016-12-27T08:23:42.804Z,1032.97
2016-12-27T08:24:53.791Z,1032.97
2016-12-27T08:26:04.778Z,1032.97
2016-12-27T08:27:15.764Z,1032.97
2016-12-27T08:28:26.988Z,1033.01
2016-12-27T08:29:37.972Z,1033.01
2016-12-27T08:30:48.952Z,1033.03
2016-12-27T08:31:59.934Z,1033.06
2016-12-27T08:33:10.917Z,1033.13
2016-12-27T08:34:21.902Z,1033.14
2016-12-27T08:35:33.082Z,1033.22
2016-12-27T08:36:44.276Z,1033.18
2016-12-27T08:37:55.463Z,1033.18
2016-12-27T08:39:06.450Z,1033.23
2016-12-27T08:40:17.434Z,1033.2
2016-12-27T08:41:28.426Z,1033.27
2016-12-27T08:42:39.429Z,1033.25
2016-12-27T08:43:50.423Z,1033.25
2016-12-27T08:45:01.611Z,1033.29
2016-12-27T08:46:12.652Z,1033.25
2016-12-27T08:47:23.634Z,1033.25
2016-12-27T08:48:34.621Z,1033.3
2016-12-27T08:49:45.612Z,1033.31
2016-12-27T08:50:56.596Z,1033.29
2016-12-27T08:52:07.578Z,1033.26
2016-12-27T08:53:18.592Z,1033.32
2016-12-27T08:54:29.570Z,1033.34
2016-12-27T08:55:40.563Z,1033.36
2016-12-27T08:56:51.541Z,1033.39
2016-12-27T08:58:02.521Z,1033.38
2016-12-27T08:59:13.525Z,1033.34
2016-12-27T09:00:24.961Z,1033.3
2016-12-27T09:01:35.959Z,1033.32
2016-12-27T09:02:46.952Z,1033.27
2016-12-27T09:03:57.966Z,1033.39
2016-12-27T09:05:09.155Z,1033.34
2016-12-27T09:06:20.196Z,1033.39
2016-12-27T09:07:31.180Z,1033.44
2016-12-27T09:08:42.373Z,1033.38
2016-12-27T09:09:53.359Z,1033.39
2016-12-27T09:11:04.355Z,1033.38
2016-12-27T09:12:15.596Z,1033.3
2016-12-27T09:13:26.579Z,1033.48
2016-12-27T09:14:37.563Z,1033.5
2016-12-27T09:15:48.541Z,1033.49
2016-12-27T09:16:59.531Z,1033.54
2016-12-27T09:18:10.556Z,1033.67
2016-12-27T09:19:21.546Z,1033.7
2016-12-27T09:20:32.735Z,1033.77
2016-12-27T09:21:43.925Z,1033.8
2016-12-27T09:22:54.908Z,1033.82
2016-12-27T09:24:05.952Z,1033.84
2016-12-27T09:25:17.135Z,1033.86
2016-12-27T09:26:28.122Z,1033.84
2016-12-27T09:27:39.109Z,1033.85
2016-12-27T09:28:50.094Z,1033.89
2016-12-27T09:30:01.124Z,1033.93
2016-12-27T09:31:12.109Z,1033.91
2016-12-27T09:32:23.086Z,1033.93
2016-12-27T09:33:34.076Z,1033.87
2016-12-27T09:34:45.059Z,1033.87
2016-12-27T09:35:56.044Z,1033.85
2016-12-27T09:37:07.029Z,1033.87
2016-12-27T09:38:18.009Z,1033.98
2016-12-27T09:39:28.996Z,1033.94
2016-12-27T09:40:39.976Z,1033.95
2016-12-27T09:41:50.966Z,1033.94
2016-12-27T09:43:01.974Z,1033.93
2016-12-27T09:44:12.957Z,1033.93
2016-12-27T09:45:23.944Z,1033.84
2016-12-27T09:46:34.928Z,1033.83
2016-12-27T09:47:45.925Z,1033.82
2016-12-27T09:48:56.909Z,1033.85
2016-12-27T09:50:07.899Z,1033.82
2016-12-27T09:51:19.081Z,1033.82
2016-12-27T09:52:30.079Z,1033.82
2016-12-27T09:53:41.063Z,1033.82
2016-12-27T09:54:52.047Z,1033.86
2016-12-27T09:56:03.032Z,1033.85
2016-12-27T09:57:14.226Z,1033.81
2016-12-27T09:58:25.216Z,1033.75
2016-12-27T09:59:36.206Z,1033.78
2016-12-27T10:00:47.196Z,1033.74
2016-12-27T10:01:58.186Z,1033.84
2016-12-27T10:03:09.174Z,1033.76
2016-12-27T10:04:20.166Z,1033.69
2016-12-27T10:05:31.240Z,1033.71
2016-12-27T10:06:42.224Z,1033.7
2016-12-27T10:07:53.417Z,1033.67
2016-12-27T10:09:04.411Z,1033.73
2016-12-27T10:10:15.400Z,1033.74
2016-12-27T10:11:26.398Z,1033.75
2016-12-27T10:12:37.387Z,1033.75
2016-12-27T10:13:48.373Z,1033.79
2016-12-27T10:14:59.595Z,1033.78
2016-12-27T10:16:10.634Z,1033.84
2016-12-27T10:17:21.624Z,1033.9
2016-12-27T10:18:32.609Z,1033.96
2016-12-27T10:19:43.633Z,1033.95
2016-12-27T10:20:54.824Z,1033.99
2016-12-27T10:22:05.820Z,1033.93
2016-12-27T10:23:16.812Z,1034
2016-12-27T10:24:27.802Z,1033.96
2016-12-27T10:25:38.796Z,1033.97
2016-12-27T10:26:49.792Z,1033.98
2016-12-27T10:28:00.787Z,1033.98
2016-12-27T10:29:11.776Z,1034
2016-12-27T10:30:22.776Z,1034.05
2016-12-27T10:31:33.780Z,1034
2016-12-27T10:32:44.775Z,1034.04
2016-12-27T10:33:55.759Z,1034.02
2016-12-27T10:35:06.758Z,1033.98
2016-12-27T10:36:17.758Z,1034.08
2016-12-27T10:37:28.759Z,1034.04
2016-12-27T10:38:39.753Z,1033.97
2016-12-27T10:39:50.754Z,1034.04
2016-12-27T10:41:01.806Z,1034.05
2016-12-27T10:42:12.805Z,1034.07
2016-12-27T10:43:23.791Z,1034.16
2016-12-27T10:44:34.784Z,1034.11
2016-12-27T10:45:45.778Z,1034.18
2016-12-27T10:46:56.778Z,1034.12
2016-12-27T10:48:07.771Z,1034.17
2016-12-27T10:49:18.765Z,1034.13
2016-12-27T10:50:30.013Z,1034.12
2016-12-27T10:51:41.004Z,1034.14
2016-12-27T10:52:51.998Z,1034.07
2016-12-27T10:54:02.996Z,1034.08
2016-12-27T10:55:13.994Z,1034.13
2016-12-27T10:56:24.981Z,1034.14
2016-12-27T10:57:35.975Z,1034.11
2016-12-27T10:58:46.971Z,1034.11
2016-12-27T10:59:58.163Z,1034.12
2016-12-27T11:01:09.162Z,1034.05
2016-12-27T11:02:20.360Z,1034.18
2016-12-27T11:03:31.556Z,1034.06
2016-12-27T11:04:42.554Z,1034.14
2016-12-27T11:05:53.602Z,1034.19
2016-12-27T11:07:04.823Z,1034.26
2016-12-27T11:08:15.817Z,1034.13
2016-12-27T11:09:26.811Z,1034.11
2016-12-27T11:10:37.810Z,1034.1
2016-12-27T11:11:49.008Z,1034.05
2016-12-27T11:13:00.000Z,1034.17
2016-12-27T11:14:11.196Z,1034.13
2016-12-27T11:15:22.192Z,1034.22
2016-12-27T11:16:33.189Z,1034.18
2016-12-27T11:17:44.178Z,1034.28
2016-12-27T11:18:55.170Z,1034.31
2016-12-27T11:20:06.161Z,1034.24
2016-12-27T11:21:17.154Z,1034.32
2016-12-27T11:22:28.151Z,1034.31
2016-12-27T11:23:39.139Z,1034.33
2016-12-27T11:24:50.135Z,1034.34
2016-12-27T11:26:01.135Z,1034.35
2016-12-27T11:27:12.129Z,1034.28
2016-12-27T11:28:23.148Z,1034.31
2016-12-27T11:29:34.133Z,1034.34
2016-12-27T11:30:45.380Z,1034.34
2016-12-27T11:31:56.375Z,1034.33
2016-12-27T11:33:07.367Z,1034.38
2016-12-27T11:34:18.371Z,1034.36
2016-12-27T11:35:29.364Z,1034.31
2016-12-27T11:36:40.400Z,1034.4
2016-12-27T11:37:51.386Z,1034.43
2016-12-27T11:39:02.408Z,1034.37
2016-12-27T11:40:13.400Z,1034.39
2016-12-27T11:41:24.420Z,1034.4
2016-12-27T11:42:35.472Z,1034.53
2016-12-27T11:43:46.471Z,1034.47
2016-12-27T11:44:57.657Z,1034.47
2016-12-27T11:46:08.649Z,1034.46
2016-12-27T11:47:19.645Z,1034.55
2016-12-27T11:48:30.689Z,1034.55
2016-12-27T11:49:41.880Z,1034.6
2016-12-27T11:50:52.871Z,1034.56
2016-12-27T11:52:03.865Z,1034.56
2016-12-27T11:53:14.850Z,1034.58
2016-12-27T11:54:26.093Z,1034.54
2016-12-27T11:55:37.088Z,1034.56
2016-12-27T11:56:48.286Z,1034.55
2016-12-27T11:57:59.484Z,1034.61
2016-12-27T11:59:10.686Z,1034.68
2016-12-27T12:00:21.885Z,1034.62
2016-12-27T12:01:32.882Z,1034.76
2016-12-27T12:02:44.107Z,1034.74
2016-12-27T12:03:55.313Z,1034.7
2016-12-27T12:05:06.304Z,1034.75
2016-12-27T12:06:17.313Z,1034.76
2016-12-27T12:07:28.306Z,1034.74
2016-12-27T12:08:39.295Z,1034.7
2016-12-27T12:09:50.284Z,1034.7
2016-12-27T12:11:01.274Z,1034.73
2016-12-27T12:12:12.268Z,1034.63
2016-12-27T12:13:23.254Z,1034.73
2016-12-27T12:14:34.266Z,1034.68
2016-12-27T12:15:45.264Z,1034.74
2016-12-27T12:16:56.460Z,1034.73
2016-12-27T12:18:07.652Z,1034.71
2016-12-27T12:19:18.652Z,1034.7
2016-12-27T12:20:29.646Z,1034.7
2016-12-27T12:21:40.632Z,1034.76
2016-12-27T12:22:51.830Z,1034.76
2016-12-27T12:24:02.824Z,1034.71
2016-12-27T12:25:14.066Z,1034.75
2016-12-27T12:26:25.054Z,1034.84
2016-12-27T12:27:36.058Z,1034.89
2016-12-27T12:28:47.048Z,1034.89
2016-12-27T12:29:58.243Z,1034.92
2016-12-27T12:31:09.491Z,1034.8
2016-12-27T12:32:20.682Z,1034.82
2016-12-27T12:33:31.871Z,1034.83
2016-12-27T12:34:43.065Z,1034.89
2016-12-27T12:35:54.259Z,1034.91
2016-12-27T12:37:05.299Z,1034.89
2016-12-27T12:38:16.291Z,1034.91
2016-12-27T12:39:27.290Z,1034.94
2016-12-27T12:40:38.482Z,1034.93
2016-12-27T12:41:49.464Z,1034.99
2016-12-27T12:43:00.710Z,1034.94
2016-12-27T12:44:11.699Z,1034.94
2016-12-27T12:45:22.691Z,1034.89
2016-12-27T12:46:33.690Z,1034.86
2016-12-27T12:47:44.682Z,1034.95
2016-12-27T12:48:55.724Z,1034.95
2016-12-27T12:50:06.916Z,1034.99
2016-12-27T12:51:17.912Z,1034.99
2016-12-27T12:52:28.902Z,1035.02
2016-12-27T12:53:39.907Z,1034.99
2016-12-27T12:54:51.142Z,1034.96
2016-12-27T12:56:02.331Z,1034.97
2016-12-27T12:57:13.329Z,1034.98
2016-12-27T12:58:24.320Z,1034.96
2016-12-27T12:59:35.306Z,1035.07
2016-12-27T13:00:46.542Z,1035
2016-12-27T13:01:57.535Z,1035
2016-12-27T13:03:08.523Z,1034.99
2016-12-27T13:04:19.516Z,1035.05
2016-12-27T13:05:30.500Z,1035.08
2016-12-27T13:06:41.488Z,1035.03
2016-12-27T13:07:52.471Z,1035.09
2016-12-27T13:09:03.466Z,1035.05
2016-12-27T13:10:14.461Z,1035.11
2016-12-27T13:11:25.455Z,1035.15
2016-12-27T13:12:36.447Z,1035.19
2016-12-27T13:13:47.431Z,1035.17
2016-12-27T13:14:58.421Z,1035.23
2016-12-27T13:16:09.414Z,1035.11
2016-12-27T13:17:20.431Z,1035.1
2016-12-27T13:18:31.621Z,1035.06
2016-12-27T13:19:42.813Z,1035.07
2016-12-27T13:20:53.801Z,1035.09
2016-12-27T13:22:04.784Z,1035.1
2016-12-27T13:23:15.976Z,1035.13
2016-12-27T13:24:26.964Z,1035.16
2016-12-27T13:25:37.954Z,1035.12
2016-12-27T13:26:48.935Z,1035.09
2016-12-27T13:27:59.920Z,1035.16
2016-12-27T13:29:10.906Z,1035.1
2016-12-27T13:30:21.890Z,1035.06
2016-12-27T13:31:32.877Z,1035.08
2016-12-27T13:32:43.866Z,1035.08
2016-12-27T13:33:54.850Z,1035.08
2016-12-27T13:35:06.036Z,1035.08
2016-12-27T13:36:17.023Z,1035.13
2016-12-27T13:37:28.012Z,1035.11
2016-12-27T13:38:39.002Z,1035.14
2016-12-27T13:39:49.990Z,1035.15
2016-12-27T13:41:00.974Z,1035.14
2016-12-27T13:42:12.164Z,1035.21
2016-12-27T13:43:23.156Z,1035.29
2016-12-27T13:44:34.149Z,1035.34
2016-12-27T13:45:45.141Z,1035.33
2016-12-27T13:46:56.136Z,1035.33
2016-12-27T13:48:07.330Z,1035.35
2016-12-27T13:49:18.324Z,1035.4
2016-12-27T13:50:29.363Z,1035.37
2016-12-27T13:51:40.358Z,1035.41
2016-12-27T13:52:51.349Z,1035.51
2016-12-27T13:54:02.339Z,1035.52
2016-12-27T13:55:13.337Z,1035.51
2016-12-27T13:56:24.524Z,1035.59
2016-12-27T13:57:35.711Z,1035.6
2016-12-27T13:58:46.699Z,1035.69
2016-12-27T13:59:57.716Z,1035.62
2016-12-27T14:01:08.703Z,1035.67
2016-12-27T14:02:19.898Z,1035.64
2016-12-27T14:03:30.897Z,1035.67
2016-12-27T14:04:41.885Z,1035.65
2016-12-27T14:05:53.070Z,1035.63
2016-12-27T14:07:04.054Z,1035.69
2016-12-27T14:08:15.258Z,1035.69
2016-12-27T14:09:26.251Z,1035.66
2016-12-27T14:10:37.238Z,1035.65
2016-12-27T14:11:48.233Z,1035.67
2016-12-27T14:12:59.228Z,1035.62
2016-12-27T14:14:10.217Z,1035.69
2016-12-27T14:15:21.199Z,1035.8
2016-12-27T14:16:32.389Z,1035.83
2016-12-27T14:17:43.384Z,1035.78
2016-12-27T14:18:54.369Z,1035.82
2016-12-27T14:20:05.760Z,1035.88
2016-12-27T14:21:16.745Z,1035.94
2016-12-27T14:22:27.924Z,1035.98